Time;durP1;ratioP1;P1;durP2;ratioP2;P2;SDS_P1;SDS_P2;PMS_P1;PMS_P2;Temp;Humidity;BMP_temperature;BMP_pressure;BME280_temperature;BME280_humidity;BME280_pressure;Samples;Min_cycle;Max_cycle;Signal;HPM_P1;HPM_P2
2024/02/08 00:00:41;;;;;;;6.75;5.68;;;;;;;;;;4926931;29;20036;-70
2024/02/08 00:03:10;;;;;;;7.60;6.20;;;;;;;;;;4923637;29;20410;-69
2024/02/08 00:05:37;;;;;;;5.15;4.60;;;;;;;;;;4921537;29;20049;-69
2024/02/08 00:08:03;;;;;;;5.50;4.90;;;;;;;;;;4926515;29;20059;-69
2024/02/08 00:10:30;;;;;;;7.30;5.82;;;;;;;;;;4907634;29;20106;-69
2024/02/08 00:12:56;;;;;;;8.25;6.28;;;;;;;;;;4923941;29;20473;-69
2024/02/08 00:15:22;;;;;;;6.15;5.53;;;;;;;;;;4926076;29;20048;-70
2024/02/08 00:17:48;;;;;;;5.53;4.95;;;;;;;;;;4922236;29;20545;-69
2024/02/08 00:20:15;;;;;;;6.43;5.22;;;;;;;;;;4921607;29;20032;-68
2024/02/08 00:22:46;;;;;;;9.02;8.05;;;;;;;;;;4924142;29;20095;-69
2024/02/08 00:25:13;;;;;;;7.57;6.88;;;;;;;;;;4905717;29;20499;-69
2024/02/08 00:27:39;;;;;;;7.03;5.43;;;;;;;;;;4924399;29;20051;-70
2024/02/08 00:30:05;;;;;;;8.07;7.35;;;;;;;;;;4923622;29;20051;-70
2024/02/08 00:32:33;;;;;;;6.22;5.72;;;;;;;;;;4934203;29;20132;-70
2024/02/08 00:35:03;;;;;;;18.60;7.80;;;;;;;;;;4921296;29;20555;-70
2024/02/08 00:37:31;;;;;;;4.82;4.43;;;;;;;;;;4927468;29;20791;-69
2024/02/08 00:39:57;;;;;;;6.45;5.03;;;;;;;;;;4924459;29;20457;-69
2024/02/08 00:42:23;;;;;;;5.00;4.55;;;;;;;;;;4923915;29;20060;-69
2024/02/08 00:44:50;;;;;;;7.50;6.30;;;;;;;;;;4924128;29;20042;-70
2024/02/08 00:47:15;;;;;;;6.25;5.57;;;;;;;;;;4925911;29;20035;-68
2024/02/08 00:49:41;;;;;;;7.78;6.97;;;;;;;;;;4921316;29;20040;-68
2024/02/08 00:52:10;;;;;;;8.15;6.85;;;;;;;;;;4922324;29;20040;-70
2024/02/08 00:54:36;;;;;;;4.55;4.25;;;;;;;;;;4924284;29;20063;-69
2024/02/08 00:57:07;;;;;;;8.00;6.43;;;;;;;;;;4922936;29;20040;-69
2024/02/08 00:59:37;;;;;;;8.02;7.30;;;;;;;;;;4925791;29;20039;-70
2024/02/08 01:02:05;;;;;;;4.78;4.38;;;;;;;;;;4924362;29;20044;-69
2024/02/08 01:04:31;;;;;;;5.72;5.22;;;;;;;;;;4920929;29;20028;-69
2024/02/08 01:06:58;;;;;;;5.40;4.78;;;;;;;;;;4927686;29;20036;-69
2024/02/08 01:09:24;;;;;;;7.95;6.00;;;;;;;;;;4919823;29;20423;-69
2024/02/08 01:11:50;;;;;;;4.10;3.90;;;;;;;;;;4938353;29;20086;-68
2024/02/08 01:14:21;;;;;;;8.43;6.60;;;;;;;;;;4923680;29;20067;-68
2024/02/08 01:16:51;;;;;;;7.18;6.30;;;;;;;;;;4911989;29;20518;-69
2024/02/08 01:19:23;;;;;;;6.18;5.57;;;;;;;;;;4919490;29;20036;-70
2024/02/08 01:21:50;;;;;;;8.98;7.93;;;;;;;;;;4927937;29;20046;-70
2024/02/08 01:24:18;;;;;;;7.65;6.70;;;;;;;;;;4919778;29;20038;-69
2024/02/08 01:26:48;;;;;;;6.20;4.57;;;;;;;;;;4927723;29;20031;-69
2024/02/08 01:29:14;;;;;;;5.38;4.90;;;;;;;;;;4931636;29;20039;-68
2024/02/08 01:31:40;;;;;;;4.63;3.97;;;;;;;;;;4927064;29;20051;-70
2024/02/08 01:34:07;;;;;;;5.32;4.82;;;;;;;;;;4931599;29;20036;-69
2024/02/08 01:36:34;;;;;;;6.82;6.22;;;;;;;;;;4920457;29;20067;-69
2024/02/08 01:39:00;;;;;;;6.68;6.07;;;;;;;;;;4922602;29;20032;-70
2024/02/08 01:41:26;;;;;;;7.68;7.07;;;;;;;;;;4923010;29;20036;-69
2024/02/08 01:43:52;;;;;;;10.35;6.60;;;;;;;;;;4940632;29;20036;-69
2024/02/08 01:46:18;;;;;;;6.72;6.13;;;;;;;;;;4925318;29;20043;-70
2024/02/08 01:48:44;;;;;;;7.68;6.32;;;;;;;;;;4920948;29;20028;-69
2024/02/08 01:51:12;;;;;;;8.10;5.63;;;;;;;;;;4921747;29;20040;-70
2024/02/08 01:53:39;;;;;;;7.97;6.72;;;;;;;;;;4926152;29;20582;-69
2024/02/08 01:56:05;;;;;;;5.95;5.45;;;;;;;;;;4928348;29;20059;-69
2024/02/08 01:58:31;;;;;;;6.40;5.82;;;;;;;;;;4924254;29;20127;-69
2024/02/08 02:01:07;;;;;;;7.57;6.88;;;;;;;;;;4922629;29;20043;-69
2024/02/08 02:03:33;;;;;;;7.45;6.75;;;;;;;;;;4919802;29;20036;-70
2024/02/08 02:05:59;;;;;;;6.00;5.43;;;;;;;;;;4919863;29;20032;-71
2024/02/08 02:08:26;;;;;;;7.80;6.95;;;;;;;;;;4922652;29;20035;-69
2024/02/08 02:10:54;;;;;;;8.30;7.38;;;;;;;;;;4922054;29;20554;-68
2024/02/08 02:13:20;;;;;;;7.22;6.53;;;;;;;;;;4919763;29;20046;-70
2024/02/08 02:15:46;;;;;;;9.32;7.97;;;;;;;;;;4926431;29;20043;-69
2024/02/08 02:18:12;;;;;;;5.70;4.97;;;;;;;;;;4919992;29;20044;-68
2024/02/08 02:20:38;;;;;;;9.32;7.25;;;;;;;;;;4922661;29;20062;-69
2024/02/08 02:23:04;;;;;;;7.82;7.03;;;;;;;;;;4928415;29;20024;-69
2024/02/08 02:25:32;;;;;;;7.80;5.25;;;;;;;;;;4924900;29;20042;-69
2024/02/08 02:27:58;;;;;;;7.25;6.55;;;;;;;;;;4921359;29;20407;-69
2024/02/08 02:30:26;;;;;;;8.77;7.90;;;;;;;;;;4920290;29;20047;-69
2024/02/08 02:32:52;;;;;;;4.90;4.50;;;;;;;;;;4920551;29;20035;-70
2024/02/08 02:35:18;;;;;;;6.35;5.72;;;;;;;;;;4904566;29;20040;-69
2024/02/08 02:37:44;;;;;;;4.80;4.35;;;;;;;;;;4898310;29;20028;-69
2024/02/08 02:40:25;;;;;;;6.85;6.25;;;;;;;;;;4926344;29;20048;-70
2024/02/08 02:42:51;;;;;;;3.67;3.45;;;;;;;;;;4920677;29;20683;-70
2024/02/08 02:45:21;;;;;;;5.90;4.82;;;;;;;;;;4934386;29;20395;-70
2024/02/08 02:47:48;;;;;;;7.35;5.13;;;;;;;;;;4921834;29;20031;-68
2024/02/08 02:50:17;;;;;;;6.80;6.05;;;;;;;;;;4919015;29;20119;-69
2024/02/08 02:52:43;;;;;;;9.20;6.68;;;;;;;;;;4922393;29;20103;-70
2024/02/08 02:55:09;;;;;;;7.40;6.32;;;;;;;;;;4921622;29;20063;-68
2024/02/08 02:57:36;;;;;;;6.88;6.20;;;;;;;;;;4918045;29;20082;-68
2024/02/08 03:00:03;;;;;;;10.90;7.88;;;;;;;;;;4923585;29;20031;-69
2024/02/08 03:02:31;;;;;;;9.50;8.27;;;;;;;;;;4920591;29;20536;-69
2024/02/08 03:04:59;;;;;;;9.93;6.85;;;;;;;;;;4920612;29;20032;-70
2024/02/08 03:07:28;;;;;;;4.72;4.30;;;;;;;;;;4919471;29;20518;-68
2024/02/08 03:09:54;;;;;;;7.30;5.15;;;;;;;;;;4924382;29;20087;-71
2024/02/08 03:12:21;;;;;;;3.95;3.65;;;;;;;;;;4919072;29;20464;-69
2024/02/08 03:14:57;;;;;;;3.78;3.47;;;;;;;;;;4920434;29;20132;-68
2024/02/08 03:17:24;;;;;;;5.13;4.72;;;;;;;;;;4920144;29;20506;-69
2024/02/08 03:19:49;;;;;;;3.80;3.60;;;;;;;;;;4921004;29;20403;-69
2024/02/08 03:22:18;;;;;;;5.25;4.75;;;;;;;;;;4907900;29;20530;-68
2024/02/08 03:24:44;;;;;;;4.35;4.03;;;;;;;;;;4924940;29;20043;-69
2024/02/08 03:27:13;;;;;;;9.73;5.68;;;;;;;;;;4918075;29;20067;-69
2024/02/08 03:29:41;;;;;;;4.05;3.75;;;;;;;;;;4919942;29;20059;-69
2024/02/08 03:32:08;;;;;;;3.05;2.95;;;;;;;;;;4925366;29;20067;-69
2024/02/08 03:34:35;;;;;;;5.75;5.22;;;;;;;;;;4922776;29;20048;-69
2024/02/08 03:37:03;;;;;;;11.35;5.10;;;;;;;;;;4916961;29;20051;-69
2024/02/08 03:39:28;;;;;;;2.88;2.75;;;;;;;;;;4928440;29;20055;-68
2024/02/08 03:41:58;;;;;;;5.28;4.88;;;;;;;;;;4925383;29;20095;-68
2024/02/08 03:44:24;;;;;;;5.18;4.78;;;;;;;;;;4924465;29;20024;-68
2024/02/08 03:46:53;;;;;;;5.00;4.50;;;;;;;;;;4942596;29;20122;-69
2024/02/08 03:49:20;;;;;;;4.55;4.15;;;;;;;;;;4928930;29;20071;-70
2024/02/08 03:51:49;;;;;;;5.85;5.28;;;;;;;;;;4928995;29;20052;-69
2024/02/08 03:54:16;;;;;;;6.50;4.38;;;;;;;;;;4921384;29;20039;-69
2024/02/08 03:56:49;;;;;;;10.05;6.18;;;;;;;;;;4925510;29;20047;-69
2024/02/08 03:59:26;;;;;;;4.22;4.03;;;;;;;;;;4925363;29;20043;-69
2024/02/08 04:02:03;;;;;;;4.22;3.83;;;;;;;;;;4925925;29;20036;-70
2024/02/08 04:04:59;;;;;;;8.05;5.55;;;;;;;;;;4914583;29;20136;-70
2024/02/08 04:07:45;;;;;;;4.03;2.65;;;;;;;;;;4926453;29;20035;-69
2024/02/08 04:54:11;;;;;;;4.60;4.30;;;;;;;;;;4920970;29;20700;-69
2024/02/08 04:56:37;;;;;;;4.47;4.15;;;;;;;;;;4924977;29;20031;-68
2024/02/08 04:59:06;;;;;;;7.20;6.10;;;;;;;;;;4905151;29;20570;-69
2024/02/08 05:01:37;;;;;;;5.15;4.75;;;;;;;;;;4906490;29;20036;-68
2024/02/08 05:04:03;;;;;;;4.73;4.00;;;;;;;;;;4926656;29;20035;-68
2024/02/08 05:06:28;;;;;;;3.58;3.28;;;;;;;;;;4919874;29;20043;-69
2024/02/08 05:09:19;;;;;;;3.92;3.65;;;;;;;;;;4923576;29;20547;-70
2024/02/08 05:11:45;;;;;;;3.17;2.97;;;;;;;;;;4924077;29;20047;-70
2024/02/08 05:14:11;;;;;;;4.65;4.18;;;;;;;;;;4921840;29;20032;-68
2024/02/08 05:16:39;;;;;;;8.07;4.30;;;;;;;;;;4924958;29;20032;-68
2024/02/08 05:19:05;;;;;;;5.57;4.28;;;;;;;;;;4923788;29;20691;-70
2024/02/08 05:21:31;;;;;;;4.20;3.83;;;;;;;;;;4920655;29;20042;-69
2024/02/08 05:24:01;;;;;;;5.72;5.22;;;;;;;;;;4921119;29;20028;-69
2024/02/08 05:26:31;;;;;;;3.75;3.45;;;;;;;;;;4907767;29;20467;-69
2024/02/08 05:28:58;;;;;;;5.40;3.55;;;;;;;;;;4928451;29;20098;-69
2024/02/08 05:31:27;;;;;;;5.32;4.90;;;;;;;;;;4924590;29;20590;-70
2024/02/08 05:33:56;;;;;;;4.72;4.32;;;;;;;;;;4920748;29;20043;-70
2024/02/08 05:36:23;;;;;;;3.85;3.50;;;;;;;;;;4921790;29;20092;-70
2024/02/08 05:38:52;;;;;;;4.63;4.32;;;;;;;;;;4921886;29;20051;-70
2024/02/08 05:41:18;;;;;;;5.28;4.05;;;;;;;;;;4922265;29;20036;-69
2024/02/08 05:43:47;;;;;;;4.25;3.47;;;;;;;;;;4924258;29;20099;-70
2024/02/08 05:46:24;;;;;;;9.80;5.75;;;;;;;;;;4922906;29;20070;-69
2024/02/08 05:49:03;;;;;;;7.10;5.57;;;;;;;;;;4922351;29;20031;-69
2024/02/08 05:51:33;;;;;;;5.00;3.30;;;;;;;;;;4922570;29;20040;-70
2024/02/08 05:54:20;;;;;;;5.55;4.47;;;;;;;;;;4927349;29;20131;-70
2024/02/08 05:56:47;;;;;;;3.55;3.22;;;;;;;;;;4939103;28;20042;-70
2024/02/08 05:59:17;;;;;;;6.90;4.55;;;;;;;;;;4930037;29;20122;-70
2024/02/08 06:01:50;;;;;;;3.97;3.78;;;;;;;;;;4930974;28;20098;-70
2024/02/08 06:04:22;;;;;;;4.22;3.83;;;;;;;;;;4925138;29;20211;-70
2024/02/08 06:06:53;;;;;;;6.75;5.55;;;;;;;;;;4922210;29;20451;-70
2024/02/08 06:09:47;;;;;;;3.78;3.50;;;;;;;;;;4919327;29;20024;-70
2024/02/08 06:12:51;;;;;;;5.97;5.38;;;;;;;;;;4927422;29;20066;-70
2024/02/08 06:15:24;;;;;;;6.15;5.65;;;;;;;;;;4920535;29;20044;-70
2024/02/08 06:17:57;;;;;;;4.78;3.45;;;;;;;;;;4928547;29;20083;-70
2024/02/08 06:20:33;;;;;;;3.15;2.85;;;;;;;;;;4923725;29;20558;-68
2024/02/08 06:23:16;;;;;;;2.20;2.17;;;;;;;;;;4920238;29;20455;-70
2024/02/08 06:25:47;;;;;;;3.83;3.63;;;;;;;;;;4923231;29;20036;-70
2024/02/08 06:28:13;;;;;;;7.05;6.40;;;;;;;;;;4925136;29;20072;-70
2024/02/08 06:30:46;;;;;;;4.65;4.28;;;;;;;;;;4919334;29;20054;-70
2024/02/08 06:33:25;;;;;;;4.72;3.13;;;;;;;;;;4925635;29;20039;-70
2024/02/08 06:35:56;;;;;;;6.95;4.03;;;;;;;;;;4921611;29;20321;-69
2024/02/08 06:38:51;;;;;;;4.45;2.47;;;;;;;;;;4927539;29;20042;-70
2024/02/08 06:41:23;;;;;;;3.22;3.03;;;;;;;;;;4917064;29;20035;-68
2024/02/08 06:43:57;;;;;;;4.70;4.20;;;;;;;;;;4922799;29;20024;-70
2024/02/08 06:46:47;;;;;;;7.85;5.38;;;;;;;;;;4922419;29;20039;-69
2024/02/08 07:39:21;;;;;;;4.72;4.25;;;;;;;;;;4934923;29;20087;-70
2024/02/08 07:41:40;;;;;;;6.05;4.55;;;;;;;;;;4932780;29;20031;-70
2024/02/08 07:44:09;;;;;;;5.80;5.18;;;;;;;;;;4937045;29;20067;-70
2024/02/08 07:46:40;;;;;;;3.72;3.40;;;;;;;;;;4953044;28;20105;-70
2024/02/08 07:49:06;;;;;;;4.78;4.13;;;;;;;;;;4951369;29;20027;-70
2024/02/08 07:51:33;;;;;;;4.53;4.22;;;;;;;;;;4953172;28;20137;-71
2024/02/08 07:54:00;;;;;;;6.78;5.40;;;;;;;;;;4951311;29;20030;-70
2024/02/08 07:56:46;;;;;;;14.70;5.78;;;;;;;;;;4952919;28;20035;-70
2024/02/08 07:59:16;;;;;;;3.30;3.13;;;;;;;;;;4935125;29;20038;-71
2024/02/08 08:01:51;;;;;;;5.63;5.13;;;;;;;;;;4932668;29;20044;-75
2024/02/08 08:05:03;;;;;;;4.38;3.03;;;;;;;;;;4932402;29;20035;-71
2024/02/08 08:07:07;;;;;;;5.60;3.80;;;;;;;;;;4905845;29;20055;-70
2024/02/08 08:09:39;;;;;;;5.50;5.00;;;;;;;;;;4928272;29;20088;-71
2024/02/08 08:12:05;;;;;;;5.05;3.58;;;;;;;;;;4933773;29;20051;-70
2024/02/08 08:17:08;;;;;;;3.53;3.22;;;;;;;;;;4944696;29;20088;-70
2024/02/08 08:19:52;;;;;;;5.25;4.00;;;;;;;;;;4901036;29;20517;-71
2024/02/08 08:22:19;;;;;;;4.50;3.22;;;;;;;;;;4931954;29;20478;-72
2024/02/08 08:25:11;;;;;;;3.88;3.58;;;;;;;;;;4932123;29;20040;-71
2024/02/08 08:30:41;;;;;;;5.15;4.25;;;;;;;;;;4905634;29;20059;-70
2024/02/08 08:33:08;;;;;;;4.13;3.72;;;;;;;;;;4900496;29;20122;-70
2024/02/08 08:41:00;;;;;;;5.65;3.97;;;;;;;;;;4933264;29;20450;-70
2024/02/08 08:43:31;;;;;;;3.70;3.25;;;;;;;;;;4933064;29;20134;-71
2024/02/08 08:46:01;;;;;;;3.80;2.95;;;;;;;;;;4927183;29;20042;-70
2024/02/08 08:48:30;;;;;;;3.78;3.50;;;;;;;;;;4928978;29;20044;-70
2024/02/08 08:50:57;;;;;;;6.57;3.88;;;;;;;;;;4931576;29;20546;-72
2024/02/08 08:53:27;;;;;;;3.30;3.10;;;;;;;;;;4933073;29;20036;-72
2024/02/08 08:55:55;;;;;;;3.55;3.20;;;;;;;;;;4946302;29;20588;-71
2024/02/08 08:58:38;;;;;;;3.95;3.45;;;;;;;;;;4938381;29;20126;-71
2024/02/08 09:01:22;;;;;;;6.22;2.75;;;;;;;;;;4917910;29;20054;-72
2024/02/08 09:04:09;;;;;;;5.53;4.15;;;;;;;;;;4932272;29;20031;-72
2024/02/08 09:06:41;;;;;;;5.53;4.68;;;;;;;;;;4949848;29;20039;-70
2024/02/08 09:11:57;;;;;;;3.53;3.30;;;;;;;;;;4932294;29;20051;-72
2024/02/08 09:14:30;;;;;;;3.88;3.53;;;;;;;;;;4931020;29;20046;-70
2024/02/08 09:16:57;;;;;;;2.88;2.67;;;;;;;;;;4945940;29;20043;-70
2024/02/08 09:19:27;;;;;;;2.28;2.15;;;;;;;;;;4931668;29;20475;-70
2024/02/08 09:21:54;;;;;;;5.38;3.53;;;;;;;;;;4932175;29;20585;-70
2024/02/08 09:24:22;;;;;;;3.17;2.95;;;;;;;;;;4930608;29;20737;-71
2024/02/08 09:26:48;;;;;;;2.58;2.42;;;;;;;;;;4931894;29;20040;-70
2024/02/08 09:29:15;;;;;;;4.47;4.07;;;;;;;;;;4931260;29;20067;-71
2024/02/08 09:32:00;;;;;;;4.45;2.83;;;;;;;;;;4915011;29;20142;-72
2024/02/08 09:34:39;;;;;;;4.05;3.33;;;;;;;;;;4923227;29;20036;-73
2024/02/08 09:37:09;;;;;;;3.47;3.20;;;;;;;;;;4926823;29;20043;-72
2024/02/08 09:39:58;;;;;;;3.70;3.47;;;;;;;;;;4930676;29;20422;-72
2024/02/08 09:42:29;;;;;;;4.15;3.80;;;;;;;;;;4922364;29;20042;-72
2024/02/08 09:45:13;;;;;;;3.63;3.35;;;;;;;;;;4930428;29;20455;-72
2024/02/08 09:47:44;;;;;;;2.10;1.98;;;;;;;;;;4930468;29;20039;-72
2024/02/08 09:50:21;;;;;;;3.75;3.25;;;;;;;;;;4937340;29;20041;-72
2024/02/08 09:52:56;;;;;;;2.72;2.53;;;;;;;;;;4950998;29;21250;-71
2024/02/08 09:55:32;;;;;;;4.00;3.63;;;;;;;;;;4929839;29;20039;-72
2024/02/08 09:58:04;;;;;;;4.28;3.72;;;;;;;;;;4927856;29;20046;-71
2024/02/08 10:00:57;;;;;;;9.60;3.17;;;;;;;;;;4929120;29;20035;-71
2024/02/08 10:03:36;;;;;;;4.85;3.85;;;;;;;;;;4928541;29;21000;-71
2024/02/08 10:06:12;;;;;;;4.57;4.20;;;;;;;;;;4929226;29;20479;-70
2024/02/08 10:09:08;;;;;;;3.70;3.38;;;;;;;;;;4920844;29;20106;-71
2024/02/08 10:11:40;;;;;;;3.15;2.95;;;;;;;;;;4916930;29;20127;-71
2024/02/08 10:14:25;;;;;;;4.25;3.95;;;;;;;;;;4920469;29;20043;-72
2024/02/08 10:17:00;;;;;;;3.97;3.67;;;;;;;;;;4921576;29;20495;-72
2024/02/08 10:22:00;;;;;;;3.60;3.40;;;;;;;;;;4930878;29;20067;-70
2024/02/08 10:27:22;;;;;;;4.50;3.13;;;;;;;;;;4891779;29;20141;-68
2024/02/08 10:30:05;;;;;;;3.88;2.85;;;;;;;;;;4946140;29;20534;-68
2024/02/08 10:32:34;;;;;;;3.00;2.70;;;;;;;;;;4931645;29;20499;-69
2024/02/08 10:35:13;;;;;;;3.92;3.63;;;;;;;;;;4932058;29;20103;-71
2024/02/08 10:37:47;;;;;;;2.88;2.67;;;;;;;;;;4932822;29;20547;-71
2024/02/08 10:40:29;;;;;;;3.10;2.88;;;;;;;;;;4935471;29;20082;-72
2024/02/08 10:43:16;;;;;;;5.63;4.18;;;;;;;;;;4948962;29;20035;-71
2024/02/08 10:45:47;;;;;;;3.78;3.53;;;;;;;;;;4934322;29;20035;-70
2024/02/08 10:48:13;;;;;;;3.58;3.28;;;;;;;;;;4948123;28;20407;-70
2024/02/08 10:50:42;;;;;;;3.67;3.38;;;;;;;;;;4950152;28;20480;-71
2024/02/08 10:53:16;;;;;;;3.13;2.92;;;;;;;;;;4950055;28;20091;-70
2024/02/08 10:55:59;;;;;;;3.13;2.88;;;;;;;;;;4949499;29;20482;-71
2024/02/08 10:58:27;;;;;;;4.15;3.83;;;;;;;;;;4950198;29;20038;-72
2024/02/08 11:03:52;;;;;;;3.75;3.28;;;;;;;;;;4926719;29;20028;-71
2024/02/08 11:06:44;;;;;;;2.85;2.70;;;;;;;;;;4925742;29;20039;-71
2024/02/08 11:09:18;;;;;;;3.63;3.38;;;;;;;;;;4930481;29;20411;-70
2024/02/08 11:11:46;;;;;;;3.60;3.30;;;;;;;;;;4931722;29;20058;-71
2024/02/08 11:14:17;;;;;;;2.38;2.25;;;;;;;;;;4930591;29;20038;-70
2024/02/08 11:16:47;;;;;;;5.50;4.00;;;;;;;;;;4926915;29;20442;-70
2024/02/08 11:19:17;;;;;;;4.00;3.70;;;;;;;;;;4930737;29;20048;-71
2024/02/08 11:21:43;;;;;;;3.88;3.45;;;;;;;;;;4931485;29;20075;-70
2024/02/08 11:24:38;;;;;;;2.15;2.05;;;;;;;;;;4929905;29;20512;-69
2024/02/08 11:27:04;;;;;;;3.58;2.70;;;;;;;;;;4928874;29;20083;-69
2024/02/08 11:29:46;;;;;;;3.63;3.33;;;;;;;;;;4920733;29;20054;-70
2024/02/08 11:32:16;;;;;;;;;;;;;;;;;;4931169;29;20134;-69
2024/02/08 11:34:44;;;;;;;4.95;3.58;;;;;;;;;;4913705;29;19942;-70
2024/02/08 11:37:16;;;;;;;6.53;4.38;;;;;;;;;;4930682;29;20035;-70
2024/02/08 11:39:46;;;;;;;;;;;;;;;;;;4926997;29;20183;-70
2024/02/08 11:42:19;;;;;;;5.78;3.67;;;;;;;;;;4928520;29;20441;-69
2024/02/08 11:44:46;;;;;;;3.45;3.15;;;;;;;;;;4930483;29;20039;-68
2024/02/08 11:47:18;;;;;;;3.10;2.90;;;;;;;;;;4909624;29;20039;-69
2024/02/08 11:49:54;;;;;;;5.20;4.60;;;;;;;;;;4927555;29;20036;-69
2024/02/08 11:52:20;;;;;;;2.63;2.42;;;;;;;;;;4928145;29;20047;-68
2024/02/08 11:54:59;;;;;;;3.45;3.22;;;;;;;;;;4897366;29;20032;-69
2024/02/08 11:57:30;;;;;;;3.92;3.63;;;;;;;;;;4928927;29;20047;-70
2024/02/08 11:59:56;;;;;;;;;;;;;;;;;;4896924;29;20036;-70
2024/02/08 12:02:27;;;;;;;3.00;2.80;;;;;;;;;;4931714;29;20288;-69
2024/02/08 12:04:56;;;;;;;5.97;4.25;;;;;;;;;;4916420;29;20040;-69
2024/02/08 12:07:23;;;;;;;3.63;3.33;;;;;;;;;;4933550;29;20040;-71
2024/02/08 12:10:09;;;;;;;3.78;3.53;;;;;;;;;;4933442;29;20043;-69
2024/02/08 12:12:35;;;;;;;4.20;3.85;;;;;;;;;;4932823;29;20052;-71
2024/02/08 12:15:01;;;;;;;3.83;3.50;;;;;;;;;;4915941;29;20418;-71
2024/02/08 12:17:31;;;;;;;3.80;3.50;;;;;;;;;;4933191;29;20223;-72
2024/02/08 12:19:59;;;;;;;4.63;3.33;;;;;;;;;;4933412;29;20117;-71
2024/02/08 12:22:26;;;;;;;5.15;4.03;;;;;;;;;;4934606;29;20044;-71
2024/02/08 12:25:02;;;;;;;3.17;2.97;;;;;;;;;;4916114;29;20514;-71
2024/02/08 12:27:30;;;;;;;4.63;4.18;;;;;;;;;;4933100;29;20039;-72
2024/02/08 12:29:56;;;;;;;4.07;3.67;;;;;;;;;;4931844;29;20058;-70
2024/02/08 12:32:27;;;;;;;6.32;3.42;;;;;;;;;;4932974;29;20043;-71
2024/02/08 12:34:56;;;;;;;3.13;2.92;;;;;;;;;;4931881;29;20035;-71
2024/02/08 12:37:25;;;;;;;6.03;2.78;;;;;;;;;;4931438;29;20102;-71
2024/02/08 12:39:51;;;;;;;5.32;3.35;;;;;;;;;;4931463;29;20044;-70
2024/02/08 12:42:18;;;;;;;2.42;2.22;;;;;;;;;;4945006;29;20513;-70
2024/02/08 12:44:48;;;;;;;4.10;3.70;;;;;;;;;;4950862;29;20076;-71
2024/02/08 12:47:17;;;;;;;4.00;3.65;;;;;;;;;;4950737;29;20035;-70
2024/02/08 12:49:50;;;;;;;3.40;3.20;;;;;;;;;;4900077;29;20054;-70
2024/02/08 12:52:16;;;;;;;4.30;3.90;;;;;;;;;;4915312;29;20074;-70
2024/02/08 12:54:42;;;;;;;2.88;2.67;;;;;;;;;;4931650;29;20075;-71
2024/02/08 12:57:10;;;;;;;2.92;2.78;;;;;;;;;;4915368;29;20043;-70
2024/02/08 12:59:40;;;;;;;3.00;2.22;;;;;;;;;;4930827;29;20078;-71
2024/02/08 13:02:16;;;;;;;3.13;2.92;;;;;;;;;;4931249;29;20542;-70
2024/02/08 13:04:44;;;;;;;3.67;2.97;;;;;;;;;;4922325;29;20479;-71
2024/02/08 13:07:14;;;;;;;2.67;2.58;;;;;;;;;;4924732;29;20522;-70
2024/02/08 13:09:43;;;;;;;2.63;2.42;;;;;;;;;;4915771;29;20727;-71
2024/02/08 13:12:15;;;;;;;3.67;3.40;;;;;;;;;;4930333;29;20059;-71
2024/02/08 13:14:48;;;;;;;2.42;2.33;;;;;;;;;;4931190;29;20510;-70
2024/02/08 13:17:21;;;;;;;3.72;3.42;;;;;;;;;;4931406;29;20094;-70
2024/02/08 13:19:56;;;;;;;3.40;3.20;;;;;;;;;;4932265;29;20032;-70
2024/02/08 13:22:24;;;;;;;2.90;2.75;;;;;;;;;;4932101;29;20066;-69
2024/02/08 13:24:51;;;;;;;3.10;2.90;;;;;;;;;;4932435;29;20027;-70
2024/02/08 13:27:24;;;;;;;4.40;4.00;;;;;;;;;;4932073;29;20127;-71
2024/02/08 13:29:54;;;;;;;3.13;2.92;;;;;;;;;;4932544;29;20118;-70
2024/02/08 13:32:25;;;;;;;3.60;3.35;;;;;;;;;;4930534;29;20138;-70
2024/02/08 13:34:54;;;;;;;3.03;2.85;;;;;;;;;;4931038;29;20058;-70
2024/02/08 13:37:22;;;;;;;3.35;3.05;;;;;;;;;;4930453;29;20035;-69
2024/02/08 13:39:49;;;;;;;3.17;2.97;;;;;;;;;;4932661;29;20071;-70
2024/02/08 13:42:19;;;;;;;3.38;3.08;;;;;;;;;;4941662;29;20066;-70
2024/02/08 13:44:45;;;;;;;4.90;4.47;;;;;;;;;;4936706;28;20066;-70
2024/02/08 13:47:12;;;;;;;3.22;3.00;;;;;;;;;;4929293;29;20074;-69
2024/02/08 13:49:38;;;;;;;3.83;3.58;;;;;;;;;;4931025;29;20040;-69
2024/02/08 13:52:06;;;;;;;2.80;2.67;;;;;;;;;;4931408;29;20059;-69
2024/02/08 13:54:37;;;;;;;2.53;2.30;;;;;;;;;;4930808;29;20044;-68
2024/02/08 13:57:12;;;;;;;2.47;2.38;;;;;;;;;;4930609;29;20051;-70
2024/02/08 13:59:44;;;;;;;2.90;2.80;;;;;;;;;;4930975;29;20414;-71
2024/02/08 14:02:12;;;;;;;2.47;2.30;;;;;;;;;;4931553;29;20067;-69
2024/02/08 14:04:39;;;;;;;3.35;3.05;;;;;;;;;;4930799;29;20031;-70
2024/02/08 14:07:11;;;;;;;2.92;2.72;;;;;;;;;;4914111;29;20040;-70
2024/02/08 14:09:40;;;;;;;3.00;2.80;;;;;;;;;;4931063;29;20040;-68
2024/02/08 14:12:08;;;;;;;5.68;2.13;;;;;;;;;;4930098;29;20039;-70
2024/02/08 14:14:44;;;;;;;3.13;2.80;;;;;;;;;;4931785;29;20531;-70
2024/02/08 14:17:11;;;;;;;2.83;2.53;;;;;;;;;;4929851;29;20097;-71
2024/02/08 14:19:42;;;;;;;7.25;4.55;;;;;;;;;;4930312;29;20155;-71
2024/02/08 14:22:08;;;;;;;5.97;3.65;;;;;;;;;;4930277;29;20042;-74
2024/02/08 14:24:48;;;;;;;3.53;3.33;;;;;;;;;;4931725;29;20039;-71
2024/02/08 14:27:14;;;;;;;3.80;3.15;;;;;;;;;;4929446;29;20379;-71
2024/02/08 14:29:43;;;;;;;3.30;2.97;;;;;;;;;;4930990;29;20507;-70
2024/02/08 14:32:08;;;;;;;4.38;3.65;;;;;;;;;;4913319;29;20040;-70
2024/02/08 14:34:37;;;;;;;2.55;2.35;;;;;;;;;;4913811;29;20415;-70
2024/02/08 14:37:06;;;;;;;3.30;2.97;;;;;;;;;;4928947;29;20071;-70
2024/02/08 14:39:33;;;;;;;2.85;2.72;;;;;;;;;;4929309;29;20422;-70
2024/02/08 14:42:00;;;;;;;3.58;3.35;;;;;;;;;;4934348;29;20122;-70
2024/02/08 14:44:31;;;;;;;4.22;3.15;;;;;;;;;;4949690;29;20043;-70
2024/02/08 14:47:00;;;;;;;3.10;2.88;;;;;;;;;;4948375;29;20417;-69
2024/02/08 14:49:28;;;;;;;2.28;2.17;;;;;;;;;;4910161;29;20203;-69
2024/02/08 14:52:01;;;;;;;2.63;2.53;;;;;;;;;;4915956;29;20078;-69
2024/02/08 14:54:28;;;;;;;3.88;3.47;;;;;;;;;;4913608;29;20035;-68
2024/02/08 14:57:09;;;;;;;3.83;3.53;;;;;;;;;;4914012;29;20050;-70
2024/02/08 14:59:49;;;;;;;3.45;3.15;;;;;;;;;;4930184;29;20083;-69
2024/02/08 15:02:18;;;;;;;3.35;3.15;;;;;;;;;;4930382;29;20907;-71
2024/02/08 15:04:45;;;;;;;3.17;2.97;;;;;;;;;;4930851;29;20035;-71
2024/02/08 15:10:07;;;;;;;4.15;3.85;;;;;;;;;;4930380;29;20062;-70
2024/02/08 15:12:41;;;;;;;6.20;5.30;;;;;;;;;;4930339;29;20434;-68
2024/02/08 15:15:18;;;;;;;3.97;3.70;;;;;;;;;;4930005;29;20058;-69
2024/02/08 15:17:46;;;;;;;4.03;3.15;;;;;;;;;;4929313;29;20047;-69
2024/02/08 15:23:09;;;;;;;2.28;2.17;;;;;;;;;;4930866;29;20032;-69
2024/02/08 15:25:46;;;;;;;3.72;3.45;;;;;;;;;;4929275;29;20099;-70
2024/02/08 15:28:26;;;;;;;4.72;4.35;;;;;;;;;;4927212;29;20384;-69
2024/02/08 15:30:55;;;;;;;8.60;4.63;;;;;;;;;;4924017;29;20176;-69
2024/02/08 15:33:30;;;;;;;4.25;3.95;;;;;;;;;;4923387;29;20044;-69
2024/02/08 15:36:10;;;;;;;3.90;2.78;;;;;;;;;;4934184;29;20039;-69
2024/02/08 15:38:45;;;;;;;4.82;4.32;;;;;;;;;;4932988;29;20057;-70
2024/02/08 15:41:19;;;;;;;3.53;3.22;;;;;;;;;;4933766;29;20036;-68
2024/02/08 15:43:48;;;;;;;5.43;4.95;;;;;;;;;;4927780;29;20042;-67
2024/02/08 15:46:15;;;;;;;5.22;3.90;;;;;;;;;;4931227;29;20401;-68
2024/02/08 15:48:44;;;;;;;2.50;2.30;;;;;;;;;;4929854;29;20456;-68
2024/02/08 15:51:10;;;;;;;4.00;3.58;;;;;;;;;;4897839;29;20511;-68
2024/02/08 15:53:49;;;;;;;2.35;2.25;;;;;;;;;;4924461;29;20035;-68
2024/02/08 15:56:21;;;;;;;3.33;3.13;;;;;;;;;;4924474;29;20307;-69
2024/02/08 15:58:47;;;;;;;2.60;2.45;;;;;;;;;;4905439;29;20498;-68
2024/02/08 16:04:00;;;;;;;4.53;4.07;;;;;;;;;;4928579;29;20023;-69
2024/02/08 16:06:41;;;;;;;;;;;;;;;;;;4932899;29;20384;-69
2024/02/08 16:09:10;;;;;;;4.13;3.17;;;;;;;;;;4926898;29;19915;-69
2024/02/08 16:11:36;;;;;;;6.15;4.85;;;;;;;;;;4920270;29;20051;-68
2024/02/08 16:14:03;;;;;;;3.28;2.97;;;;;;;;;;4934778;29;20050;-69
2024/02/08 16:16:32;;;;;;;3.88;3.58;;;;;;;;;;4933512;29;20040;-70
2024/02/08 16:19:23;;;;;;;3.42;3.10;;;;;;;;;;4933037;29;20047;-69
2024/02/08 16:21:47;;;;;;;2.42;2.33;;;;;;;;;;4929671;29;20035;-69
2024/02/08 16:24:13;;;;;;;3.47;2.92;;;;;;;;;;4929968;29;20055;-70
2024/02/08 16:26:44;;;;;;;4.40;2.58;;;;;;;;;;4924220;29;20048;-70
2024/02/08 16:29:16;;;;;;;2.88;2.72;;;;;;;;;;4925596;29;20627;-71
2024/02/08 16:31:44;;;;;;;3.05;2.78;;;;;;;;;;4937198;29;20052;-70
2024/02/08 16:34:34;;;;;;;2.70;2.60;;;;;;;;;;4927153;29;20060;-71
2024/02/08 16:37:09;;;;;;;3.40;3.20;;;;;;;;;;4911075;29;20055;-71
2024/02/08 16:39:54;;;;;;;3.22;3.03;;;;;;;;;;4924931;29;20082;-71
2024/02/08 16:42:23;;;;;;;2.95;2.70;;;;;;;;;;4932208;29;20039;-71
2024/02/08 16:44:56;;;;;;;2.65;2.40;;;;;;;;;;4926165;29;20063;-69
2024/02/08 16:47:34;;;;;;;3.53;3.30;;;;;;;;;;4925334;29;20534;-69
2024/02/08 16:50:16;;;;;;;3.60;3.30;;;;;;;;;;4922470;29;20570;-68
2024/02/08 16:52:46;;;;;;;4.05;3.65;;;;;;;;;;4926890;29;20055;-69
2024/02/08 16:55:12;;;;;;;2.95;2.70;;;;;;;;;;4924048;29;20047;-69
2024/02/08 16:57:39;;;;;;;4.00;3.70;;;;;;;;;;4942915;28;20255;-69
2024/02/08 17:03:37;;;;;;;6.45;5.57;;;;;;;;;;4890436;29;20028;-69
2024/02/08 17:05:56;;;;;;;2.90;2.72;;;;;;;;;;4921056;29;20123;-70
2024/02/08 17:08:29;;;;;;;3.13;2.92;;;;;;;;;;4923151;29;20631;-70
2024/02/08 17:11:01;;;;;;;3.55;3.33;;;;;;;;;;4909412;29;20036;-70
2024/02/08 17:13:40;;;;;;;1.77;1.77;;;;;;;;;;4938833;29;20419;-71